createdAt,value
2023-03-16T00:01:48.105Z,43.6
2023-03-16T00:03:31.443Z,43.7
2023-03-16T00:05:14.844Z,43.6
2023-03-16T00:06:58.311Z,43.6
2023-03-16T00:08:41.642Z,43.7
2023-03-16T00:10:25.025Z,43.7
2023-03-16T00:12:08.449Z,43.7
2023-03-16T00:13:51.825Z,43.6
2023-03-16T00:17:18.303Z,43.4
2023-03-16T00:19:01.682Z,43.1
2023-03-16T00:20:45.082Z,42.6
2023-03-16T00:22:28.491Z,42.5
2023-03-16T00:24:11.897Z,42.4
2023-03-16T00:25:55.287Z,42.4
2023-03-16T00:27:38.666Z,42.5
2023-03-16T00:29:22.052Z,42.5
2023-03-16T00:32:48.544Z,42.4
2023-03-16T00:34:31.933Z,42.4
2023-03-16T00:36:15.393Z,42.4
2023-03-16T00:37:58.723Z,42.5
2023-03-16T00:39:42.111Z,42.5
2023-03-16T00:41:25.521Z,42.5
2023-03-16T00:43:08.924Z,42.5
2023-03-16T00:44:52.308Z,42.5
2023-03-16T00:48:18.776Z,42.5
2023-03-16T00:51:45.565Z,42.6
2023-03-16T00:53:28.964Z,42.6
2023-03-16T00:55:12.360Z,42.6
2023-03-16T00:56:55.758Z,42.5
2023-03-16T00:58:39.161Z,42.5
2023-03-16T01:03:48.398Z,42.5
2023-03-16T01:05:31.786Z,42.5
2023-03-16T01:07:15.214Z,42.5
2023-03-16T01:08:58.581Z,42.6
2023-03-16T01:10:41.982Z,42.5
2023-03-16T01:12:25.413Z,42.5
2023-03-16T01:14:08.782Z,42.6
2023-03-16T01:19:18.027Z,42.6
2023-03-16T01:21:01.418Z,42.6
2023-03-16T01:22:44.822Z,42.7
2023-03-16T01:24:28.184Z,42.8
2023-03-16T01:26:11.600Z,42.9
2023-03-16T01:27:54.988Z,42.9
2023-03-16T01:29:38.597Z,43
2023-03-16T01:31:21.781Z,43
2023-03-16T01:34:48.272Z,43.1
2023-03-16T01:36:31.664Z,43.1
2023-03-16T01:38:15.060Z,43.1
2023-03-16T01:39:58.446Z,43
2023-03-16T01:41:41.850Z,43.1
2023-03-16T01:43:25.246Z,43.1
2023-03-16T01:45:08.647Z,43.1
2023-03-16T01:46:52.036Z,43.1
2023-03-16T01:52:01.271Z,43.2
2023-03-16T01:53:44.652Z,43.3
2023-03-16T01:55:28.083Z,43.3
2023-03-16T01:57:11.462Z,43.3
2023-03-16T01:58:54.849Z,43.3
2023-03-16T02:00:38.243Z,43.3
2023-03-16T02:02:21.645Z,43.4
2023-03-16T02:04:05.049Z,43.5
2023-03-16T02:09:14.278Z,43.9
2023-03-16T02:10:57.686Z,44
2023-03-16T02:12:41.073Z,44.1
2023-03-16T02:14:24.460Z,44.2
2023-03-16T02:16:07.855Z,44.2
2023-03-16T02:17:51.243Z,44.3
2023-03-16T02:19:34.649Z,44.4
2023-03-16T02:21:18.035Z,44.4
2023-03-16T02:23:01.458Z,44.4
2023-03-16T02:24:45.150Z,44.4
2023-03-16T02:26:28.566Z,44.4
2023-03-16T02:28:11.943Z,44.4
2023-03-16T02:29:55.336Z,44.4
2023-03-16T02:31:38.743Z,44.4
2023-03-16T02:33:22.130Z,44.3
2023-03-16T02:35:05.529Z,44.4
2023-03-16T02:36:48.917Z,44.4
2023-03-16T02:41:58.160Z,44.3
2023-03-16T02:43:41.571Z,44.3
2023-03-16T02:45:24.953Z,44.3
2023-03-16T02:47:08.355Z,44.3
2023-03-16T02:48:51.746Z,44.2
2023-03-16T02:50:35.153Z,44.1
2023-03-16T02:52:18.548Z,44.1
2023-03-16T02:54:01.936Z,44.1
2023-03-16T02:57:28.411Z,44.1
2023-03-16T02:59:11.843Z,44.1
2023-03-16T03:00:55.218Z,44.1
2023-03-16T03:02:38.599Z,44.1
2023-03-16T03:04:21.982Z,44.1
2023-03-16T03:06:05.400Z,44
2023-03-16T03:07:48.788Z,43.9
2023-03-16T03:09:32.204Z,43.9
2023-03-16T03:14:41.440Z,44
2023-03-16T03:16:24.838Z,44
2023-03-16T03:18:08.205Z,43.9
2023-03-16T03:19:51.609Z,43.9
2023-03-16T03:21:35.000Z,43.9
2023-03-16T03:23:18.406Z,43.9
2023-03-16T03:25:01.813Z,43.8
2023-03-16T03:26:45.194Z,43.9
2023-03-16T03:30:11.719Z,43.9
2023-03-16T03:31:55.059Z,43.9
2023-03-16T03:33:38.454Z,43.9
2023-03-16T03:35:21.845Z,43.9
2023-03-16T03:37:05.258Z,43.9
2023-03-16T03:38:48.647Z,43.9
2023-03-16T03:40:32.045Z,43.9
2023-03-16T03:42:15.457Z,43.8
2023-03-16T03:47:24.685Z,43.9
2023-03-16T03:49:08.086Z,43.9
2023-03-16T03:50:51.480Z,43.9
2023-03-16T03:52:34.878Z,43.9
2023-03-16T03:54:18.268Z,43.9
2023-03-16T03:56:01.665Z,43.9
2023-03-16T03:57:45.057Z,43.9
2023-03-16T03:59:28.454Z,43.8
2023-03-16T04:02:54.976Z,43.9
2023-03-16T04:04:38.322Z,43.8
2023-03-16T04:06:21.717Z,43.8
2023-03-16T04:08:05.125Z,43.8
2023-03-16T04:09:48.518Z,43.8
2023-03-16T04:11:31.892Z,43.8
2023-03-16T04:13:15.318Z,43.9
2023-03-16T04:14:58.710Z,43.8
2023-03-16T04:18:25.175Z,43.8
2023-03-16T04:20:08.566Z,43.8
2023-03-16T04:21:51.958Z,43.8
2023-03-16T04:23:35.376Z,43.8
2023-03-16T04:25:18.759Z,43.8
2023-03-16T04:27:02.165Z,43.8
2023-03-16T04:28:45.557Z,43.8
2023-03-16T04:30:28.954Z,43.8
2023-03-16T04:33:55.425Z,43.8
2023-03-16T04:35:38.850Z,43.8
2023-03-16T04:37:22.204Z,43.8
2023-03-16T04:39:05.646Z,43.8
2023-03-16T04:40:49.019Z,43.8
2023-03-16T04:42:32.404Z,43.8
2023-03-16T04:44:15.796Z,43.8
2023-03-16T04:45:59.192Z,43.7
2023-03-16T04:49:25.669Z,43.7
2023-03-16T04:51:09.056Z,43.7
2023-03-16T04:52:52.448Z,43.8
2023-03-16T04:54:35.857Z,43.8
2023-03-16T04:56:19.263Z,43.8
2023-03-16T04:58:02.635Z,43.8
2023-03-16T04:59:46.038Z,43.8
2023-03-16T05:01:29.438Z,43.7
2023-03-16T05:04:55.907Z,43.8
2023-03-16T05:06:39.304Z,43.8
2023-03-16T05:08:22.689Z,43.8
2023-03-16T05:10:06.100Z,43.7
2023-03-16T05:11:49.480Z,43.7
2023-03-16T05:13:32.886Z,43.7
2023-03-16T05:15:16.286Z,43.7
2023-03-16T05:16:59.673Z,43.7
2023-03-16T05:18:43.396Z,43.7
2023-03-16T05:20:26.821Z,43.7
2023-03-16T05:22:10.163Z,43.7
2023-03-16T05:23:53.585Z,43.7
2023-03-16T05:25:36.964Z,43.7
2023-03-16T05:27:20.369Z,43.7
2023-03-16T05:29:03.818Z,43.7
2023-03-16T05:30:47.152Z,43.7
2023-03-16T05:34:13.637Z,43.6
2023-03-16T05:35:57.022Z,43.6
2023-03-16T05:37:40.421Z,43.6
2023-03-16T05:39:23.813Z,43.7
2023-03-16T05:41:07.208Z,43.7
2023-03-16T05:42:50.601Z,43.7
2023-03-16T05:44:34.013Z,43.7
2023-03-16T05:46:17.410Z,43.7
2023-03-16T05:49:43.889Z,43.7
2023-03-16T05:51:27.267Z,43.6
2023-03-16T05:53:10.673Z,43.7
2023-03-16T05:54:54.061Z,43.7
2023-03-16T05:56:37.464Z,43.7
2023-03-16T05:58:20.879Z,43.6
2023-03-16T06:00:04.258Z,43.6
2023-03-16T06:01:47.644Z,43.6
2023-03-16T06:06:56.924Z,43.6
2023-03-16T06:08:40.290Z,43.6
2023-03-16T06:10:23.665Z,43.6
2023-03-16T06:12:07.073Z,43.6
2023-03-16T06:13:50.465Z,43.6
2023-03-16T06:15:33.866Z,43.6
2023-03-16T06:17:17.270Z,43.6
2023-03-16T06:19:00.670Z,43.6
2023-03-16T06:22:27.143Z,43.6
2023-03-16T06:24:10.530Z,43.6
2023-03-16T06:25:53.983Z,43.6
2023-03-16T06:27:37.314Z,43.6
2023-03-16T06:29:20.739Z,43.6
2023-03-16T06:31:04.194Z,43.6
2023-03-16T06:32:47.689Z,43.6
2023-03-16T06:34:30.903Z,43.6
2023-03-16T06:37:57.389Z,43.6
2023-03-16T06:39:40.781Z,43.5
2023-03-16T06:41:24.237Z,43.5
2023-03-16T06:43:07.570Z,43.6
2023-03-16T06:44:51.018Z,43.6
2023-03-16T06:46:34.420Z,43.6
2023-03-16T06:48:17.796Z,43.6
2023-03-16T06:50:01.158Z,43.6
2023-03-16T06:53:27.623Z,43.6
2023-03-16T06:55:11.020Z,43.6
2023-03-16T06:56:54.440Z,43.6
2023-03-16T06:58:37.838Z,43.6
2023-03-16T07:00:21.370Z,43.6
2023-03-16T07:02:04.611Z,43.5
2023-03-16T07:03:48.017Z,43.5
2023-03-16T07:05:31.388Z,43.5
2023-03-16T07:07:15.099Z,43.5
2023-03-16T07:08:58.496Z,43.5
2023-03-16T07:10:41.906Z,43.4
2023-03-16T07:12:25.335Z,43.4
2023-03-16T07:14:08.716Z,43.4
2023-03-16T07:15:52.088Z,43.4
2023-03-16T07:17:35.540Z,43.3
2023-03-16T07:22:45.350Z,43.1
2023-03-16T07:24:28.739Z,43.2
2023-03-16T07:26:12.155Z,43
2023-03-16T07:27:55.541Z,42.9
2023-03-16T07:29:38.937Z,42.9
2023-03-16T07:31:22.496Z,43
2023-03-16T07:33:05.705Z,43.1
2023-03-16T07:34:49.214Z,43.1
2023-03-16T07:38:15.596Z,43.1
2023-03-16T07:39:58.989Z,43.1
2023-03-16T07:41:42.377Z,43.1
2023-03-16T07:43:25.763Z,43.1
2023-03-16T07:45:09.270Z,43
2023-03-16T07:46:52.568Z,43
2023-03-16T07:48:35.976Z,42.9
2023-03-16T07:50:19.363Z,42.9
2023-03-16T07:52:03.105Z,42.8
2023-03-16T07:53:46.557Z,42.8
2023-03-16T07:55:29.844Z,42.8
2023-03-16T07:57:13.273Z,42.8
2023-03-16T07:58:56.660Z,42.8
2023-03-16T08:00:40.056Z,42.8
2023-03-16T08:02:23.561Z,42.8
2023-03-16T08:04:06.860Z,42.8
2023-03-16T08:07:33.300Z,42.8
2023-03-16T08:09:16.728Z,42.8
2023-03-16T08:11:00.128Z,42.8
2023-03-16T08:12:43.502Z,42.8
2023-03-16T08:14:26.953Z,42.8
2023-03-16T08:16:10.290Z,42.8
2023-03-16T08:17:53.768Z,42.8
2023-03-16T08:21:20.230Z,42.7
2023-03-16T08:23:03.651Z,42.7
2023-03-16T08:24:47.025Z,42.7
2023-03-16T08:26:30.347Z,42.7
2023-03-16T08:28:13.744Z,42.7
2023-03-16T08:29:57.150Z,42.7
2023-03-16T08:31:40.566Z,42.7
2023-03-16T08:33:23.924Z,42.7
2023-03-16T08:35:07.687Z,42.6
2023-03-16T08:36:51.149Z,42.6
2023-03-16T08:38:34.446Z,42.6
2023-03-16T08:40:17.928Z,42.6
2023-03-16T08:42:01.248Z,42.5
2023-03-16T08:43:44.639Z,42.5
2023-03-16T08:45:28.069Z,42.5
2023-03-16T08:48:54.516Z,42.5
2023-03-16T08:50:38.073Z,42.5
2023-03-16T08:52:21.345Z,42.5
2023-03-16T08:54:04.770Z,42.5
2023-03-16T08:55:48.119Z,42.4
2023-03-16T08:57:31.481Z,42.4
2023-03-16T08:59:14.866Z,42.4
2023-03-16T09:02:41.420Z,42.3
2023-03-16T09:04:24.735Z,42.3
2023-03-16T09:06:08.126Z,42.2
2023-03-16T09:07:51.546Z,42.1
2023-03-16T09:09:34.964Z,42.1
2023-03-16T09:11:18.334Z,42
2023-03-16T09:13:01.720Z,42
2023-03-16T09:18:10.961Z,41.7
2023-03-16T09:19:54.369Z,41.8
2023-03-16T09:21:37.759Z,41.8
2023-03-16T09:23:21.154Z,41.8
2023-03-16T09:25:04.781Z,41.7
2023-03-16T09:28:31.435Z,41.6
2023-03-16T09:31:57.819Z,41.5
2023-03-16T09:33:41.424Z,41.5
2023-03-16T09:35:24.751Z,41.5
2023-03-16T09:37:08.280Z,41.5
2023-03-16T09:38:51.576Z,41.4
2023-03-16T09:40:34.933Z,41.2
2023-03-16T09:42:18.439Z,41.2
2023-03-16T09:47:27.537Z,41.2
2023-03-16T09:49:10.989Z,41.1
2023-03-16T09:50:54.395Z,41.1
2023-03-16T09:52:37.726Z,41.1
2023-03-16T09:54:21.197Z,41.1
2023-03-16T09:56:04.498Z,41.1
2023-03-16T09:57:47.802Z,41.2
2023-03-16T10:01:14.362Z,41.2
2023-03-16T10:02:57.897Z,41.1
2023-03-16T10:04:41.210Z,41.1
2023-03-16T10:06:24.638Z,41.1
2023-03-16T10:08:08.124Z,41
2023-03-16T10:09:51.485Z,41
2023-03-16T10:11:34.843Z,41
2023-03-16T10:13:18.276Z,41
2023-03-16T10:16:44.713Z,41
2023-03-16T10:18:27.919Z,41
2023-03-16T10:20:11.509Z,41
2023-03-16T10:21:54.879Z,41
2023-03-16T10:23:38.278Z,40.9
2023-03-16T10:25:21.755Z,40.9
2023-03-16T10:27:05.112Z,40.9
2023-03-16T10:30:31.550Z,40.9
2023-03-16T10:32:14.976Z,40.9
2023-03-16T10:33:58.350Z,40.9
2023-03-16T10:35:41.756Z,40.6
2023-03-16T10:37:25.098Z,40.7
2023-03-16T10:39:08.544Z,40.6
2023-03-16T10:40:51.984Z,40.8
2023-03-16T10:42:35.346Z,40.7
2023-03-16T10:44:18.986Z,40.7
2023-03-16T10:46:02.448Z,40.6
2023-03-16T10:47:45.804Z,40.6
2023-03-16T10:49:29.173Z,40.7
2023-03-16T10:51:12.701Z,40.7
2023-03-16T10:52:56.043Z,40.7
2023-03-16T10:54:39.408Z,40.8
2023-03-16T10:56:22.853Z,40.8
2023-03-16T10:58:06.473Z,40.8
2023-03-16T10:59:49.955Z,40.8
2023-03-16T11:01:33.332Z,40.9
2023-03-16T11:03:16.715Z,40.9
2023-03-16T11:05:00.114Z,40.9
2023-03-16T11:06:43.511Z,41
2023-03-16T11:08:26.758Z,41.1
2023-03-16T11:10:10.370Z,41.1
2023-03-16T11:11:54.106Z,41.3
2023-03-16T11:13:37.469Z,41.1
2023-03-16T11:15:20.630Z,41.2
2023-03-16T11:17:04.272Z,41.3
2023-03-16T11:18:47.597Z,41.4
2023-03-16T11:20:30.973Z,42.1
2023-03-16T11:22:14.387Z,42.4
2023-03-16T11:23:57.777Z,41.8
2023-03-16T11:27:24.175Z,42.1
2023-03-16T11:29:07.663Z,42.2
2023-03-16T11:30:51.062Z,42.1
2023-03-16T11:32:34.436Z,42
2023-03-16T11:34:17.801Z,41.9
2023-03-16T11:36:01.306Z,42
2023-03-16T11:37:44.666Z,42
2023-03-16T11:39:28.020Z,42
2023-03-16T11:41:11.786Z,41.9
2023-03-16T11:42:55.168Z,41.9
2023-03-16T11:44:38.525Z,41.9
2023-03-16T11:46:21.925Z,41.9
2023-03-16T11:48:05.187Z,42
2023-03-16T11:49:48.740Z,42
2023-03-16T11:51:32.099Z,41.9
2023-03-16T11:56:41.453Z,42
2023-03-16T11:58:24.786Z,42
2023-03-16T12:00:08.224Z,42
2023-03-16T12:01:51.484Z,42
2023-03-16T12:03:34.837Z,42
2023-03-16T12:05:18.342Z,42
2023-03-16T12:07:01.750Z,42
2023-03-16T12:10:28.240Z,42
2023-03-16T12:12:11.603Z,42
2023-03-16T12:13:55.000Z,42.1
2023-03-16T12:15:38.310Z,42.1
2023-03-16T12:17:21.760Z,41.8
2023-03-16T12:19:05.145Z,41.8
2023-03-16T12:20:48.659Z,41.8
2023-03-16T12:24:15.088Z,41.8
2023-03-16T12:25:58.411Z,41.8
2023-03-16T12:27:41.650Z,42
2023-03-16T12:29:25.080Z,42
2023-03-16T12:31:08.452Z,42
2023-03-16T12:32:51.849Z,42
2023-03-16T12:34:35.261Z,42.1
2023-03-16T12:39:44.509Z,42.2
2023-03-16T12:41:27.968Z,42.3
2023-03-16T12:43:11.291Z,42.1
2023-03-16T12:44:54.701Z,42.2
2023-03-16T12:46:38.067Z,42.2
2023-03-16T12:48:21.508Z,42.3
2023-03-16T12:50:04.910Z,42.3
2023-03-16T12:53:31.346Z,42.3
2023-03-16T12:55:14.809Z,42.4
2023-03-16T12:56:58.183Z,42.4
2023-03-16T12:58:41.617Z,42.3
2023-03-16T13:00:24.947Z,42.4
2023-03-16T13:02:08.405Z,42.5
2023-03-16T13:03:51.774Z,42.5
2023-03-16T13:07:18.200Z,42.7
2023-03-16T13:09:01.590Z,42.7
2023-03-16T13:10:45.036Z,42.7
2023-03-16T13:12:28.397Z,42.8
2023-03-16T13:14:11.793Z,42.9
2023-03-16T13:15:55.229Z,43
2023-03-16T13:17:38.567Z,43.2
2023-03-16T13:22:47.827Z,42.9
2023-03-16T13:24:31.228Z,42.8
2023-03-16T13:26:14.604Z,42.8
2023-03-16T13:27:58.001Z,42.8
2023-03-16T13:29:41.412Z,43
2023-03-16T13:31:24.803Z,43
2023-03-16T13:33:08.188Z,43
2023-03-16T13:36:34.714Z,42.9
2023-03-16T13:38:18.069Z,42.9
2023-03-16T13:40:01.462Z,43
2023-03-16T13:41:44.925Z,43
2023-03-16T13:43:28.243Z,43
2023-03-16T13:45:11.647Z,43.1
2023-03-16T13:46:55.039Z,42.9
2023-03-16T13:50:21.510Z,43
2023-03-16T13:52:04.908Z,43
2023-03-16T13:53:48.302Z,43
2023-03-16T13:55:31.717Z,42.9
2023-03-16T13:57:15.116Z,42.9
2023-03-16T13:58:58.497Z,42.9
2023-03-16T14:00:41.884Z,42.8
2023-03-16T14:04:08.413Z,42.8
2023-03-16T14:05:51.765Z,42.8
2023-03-16T14:07:35.152Z,42.8
2023-03-16T14:09:18.554Z,42.8
2023-03-16T14:11:01.946Z,42.8
2023-03-16T14:12:45.368Z,42.8
2023-03-16T14:14:28.750Z,42.8
2023-03-16T14:17:55.219Z,42.8
2023-03-16T14:19:38.604Z,42.8
2023-03-16T14:21:22.002Z,42.8
2023-03-16T14:23:05.407Z,42.8
2023-03-16T14:24:48.807Z,42.8
2023-03-16T14:26:32.197Z,42.8
2023-03-16T14:28:15.624Z,42.8
2023-03-16T14:31:42.086Z,42.8
2023-03-16T14:33:25.481Z,42.8
2023-03-16T14:35:08.872Z,42.8
2023-03-16T14:36:52.287Z,42.8
2023-03-16T14:38:35.721Z,42.8
2023-03-16T14:40:19.059Z,42.8
2023-03-16T14:42:02.448Z,42.8
2023-03-16T14:47:11.719Z,42.8
2023-03-16T14:48:55.091Z,42.8
2023-03-16T14:50:38.667Z,42.8
2023-03-16T14:52:21.912Z,42.8
2023-03-16T14:54:05.384Z,42.8
2023-03-16T14:55:48.672Z,42.8
2023-03-16T14:57:32.197Z,42.8
2023-03-16T15:00:58.580Z,42.8
2023-03-16T15:02:42.035Z,42.8
2023-03-16T15:04:25.415Z,42.8
2023-03-16T15:06:08.915Z,42.8
2023-03-16T15:07:52.280Z,42.8
2023-03-16T15:09:35.640Z,42.8
2023-03-16T15:11:18.924Z,42.8
2023-03-16T15:14:45.390Z,42.8
2023-03-16T15:16:28.791Z,42.8
2023-03-16T15:18:12.271Z,42.9
2023-03-16T15:19:55.598Z,42.9
2023-03-16T15:21:38.984Z,42.9
2023-03-16T15:23:22.470Z,42.9
2023-03-16T15:25:05.787Z,42.9
2023-03-16T15:30:15.016Z,42.9
2023-03-16T15:31:58.463Z,42.8
2023-03-16T15:33:41.852Z,43.2
2023-03-16T15:35:25.211Z,43.5
2023-03-16T15:37:08.623Z,43
2023-03-16T15:38:52.092Z,42.9
2023-03-16T15:40:35.396Z,43.1
2023-03-16T15:44:01.874Z,44.4
2023-03-16T15:45:45.284Z,44.2
2023-03-16T15:47:28.686Z,44.1
2023-03-16T15:50:55.538Z,44.7
2023-03-16T15:52:38.879Z,44.6
2023-03-16T15:54:22.264Z,44.3
2023-03-16T15:57:48.751Z,44.8
2023-03-16T15:59:32.308Z,44.6
2023-03-16T16:01:15.638Z,44.1
2023-03-16T16:02:58.970Z,44.3
2023-03-16T16:04:42.307Z,44.5
2023-03-16T16:06:25.852Z,44.5
2023-03-16T16:08:09.121Z,44.5
2023-03-16T16:11:35.609Z,44.5
2023-03-16T16:13:18.981Z,44.2
2023-03-16T16:15:02.378Z,44.4
2023-03-16T16:16:45.813Z,44.5
2023-03-16T16:18:29.185Z,44.3
2023-03-16T16:20:12.736Z,44.3
2023-03-16T16:21:56.106Z,43.9
2023-03-16T16:23:39.561Z,43.9
2023-03-16T16:25:23.272Z,44
2023-03-16T16:27:06.544Z,44
2023-03-16T16:28:49.985Z,44
2023-03-16T16:30:33.377Z,44
2023-03-16T16:32:17.207Z,44
2023-03-16T16:34:00.249Z,44
2023-03-16T16:35:43.535Z,44
2023-03-16T16:39:10.127Z,44
2023-03-16T16:40:53.545Z,44
2023-03-16T16:42:36.878Z,44
2023-03-16T16:44:20.357Z,43.9
2023-03-16T16:46:03.516Z,43.9
2023-03-16T16:47:46.921Z,43.9
2023-03-16T16:49:30.349Z,43.9
2023-03-16T16:51:13.705Z,43.9
2023-03-16T16:52:57.424Z,43.8
2023-03-16T16:54:40.943Z,43.8
2023-03-16T16:56:24.197Z,43.9
2023-03-16T16:58:07.589Z,43.8
2023-03-16T16:59:51.020Z,43.8
2023-03-16T17:01:34.434Z,43.8
2023-03-16T17:03:17.858Z,43.8
2023-03-16T17:08:27.016Z,43.2
2023-03-16T17:10:10.550Z,43.1
2023-03-16T17:11:53.829Z,43.3
2023-03-16T17:13:37.214Z,43.3
2023-03-16T17:15:20.718Z,43.3
2023-03-16T17:17:04.014Z,43.3
2023-03-16T17:18:47.518Z,43.3
2023-03-16T17:23:56.660Z,43.3
2023-03-16T17:25:40.059Z,43.3
2023-03-16T17:27:23.457Z,43.4
2023-03-16T17:29:06.862Z,43.5
2023-03-16T17:30:50.229Z,43.7
2023-03-16T17:32:33.854Z,43.7
2023-03-16T17:34:17.031Z,43.7
2023-03-16T17:37:43.553Z,43.6
2023-03-16T17:39:27.076Z,43.6
2023-03-16T17:41:10.291Z,43.6
2023-03-16T17:42:53.738Z,43.6
2023-03-16T17:44:37.124Z,43.5
2023-03-16T17:46:20.573Z,43.6
2023-03-16T17:48:03.902Z,43.6
2023-03-16T17:49:47.299Z,43.6
2023-03-16T17:53:13.812Z,43.6
2023-03-16T17:54:57.170Z,43.6
2023-03-16T17:56:40.565Z,43.6
2023-03-16T17:58:23.966Z,43.6
2023-03-16T18:00:08.555Z,43.6
2023-03-16T18:01:50.738Z,43.6
2023-03-16T18:03:34.158Z,43.6
2023-03-16T18:05:17.586Z,43.6
2023-03-16T18:07:01.241Z,43.7
2023-03-16T18:08:44.645Z,43.7
2023-03-16T18:10:28.023Z,43.7
2023-03-16T18:12:11.426Z,43.8
2023-03-16T18:13:54.834Z,43.9
2023-03-16T18:15:38.230Z,44
2023-03-16T18:17:21.630Z,44
2023-03-16T18:19:05.001Z,44.1
2023-03-16T18:20:48.700Z,44.1
2023-03-16T18:22:32.177Z,44.2
2023-03-16T18:24:15.510Z,44.1
2023-03-16T18:25:58.908Z,44.2
2023-03-16T18:27:42.317Z,44.1
2023-03-16T18:29:25.764Z,44.1
2023-03-16T18:31:09.100Z,44
2023-03-16T18:34:35.625Z,43.9
2023-03-16T18:36:19.024Z,43.9
2023-03-16T18:38:02.396Z,43.9
2023-03-16T18:39:45.813Z,43.9
2023-03-16T18:41:29.172Z,43.9
2023-03-16T18:43:12.554Z,43.9
2023-03-16T18:44:55.988Z,44
2023-03-16T18:50:05.196Z,44
2023-03-16T18:51:48.711Z,44.1
2023-03-16T18:53:31.989Z,44.1
2023-03-16T18:55:15.378Z,44.1
2023-03-16T18:56:58.816Z,44.1
2023-03-16T18:58:42.235Z,44.1
2023-03-16T19:00:25.591Z,44.1
2023-03-16T19:03:52.045Z,44.2
2023-03-16T19:05:35.520Z,44.2
2023-03-16T19:07:18.853Z,44.2
2023-03-16T19:09:02.333Z,44.3
2023-03-16T19:10:45.634Z,44.3
2023-03-16T19:12:29.024Z,44.3
2023-03-16T19:14:12.445Z,44.2
2023-03-16T19:17:38.908Z,44.1
2023-03-16T19:19:22.314Z,44
2023-03-16T19:21:05.702Z,44
2023-03-16T19:22:49.100Z,43.9
2023-03-16T19:24:32.497Z,43.9
2023-03-16T19:26:15.895Z,43.9
2023-03-16T19:27:59.288Z,43.9
2023-03-16T19:31:25.783Z,43.9
2023-03-16T19:33:09.153Z,43.8
2023-03-16T19:34:52.546Z,43.8
2023-03-16T19:36:35.951Z,43.8
2023-03-16T19:38:19.352Z,43.8
2023-03-16T19:40:02.761Z,43.8
2023-03-16T19:41:46.134Z,43.8
2023-03-16T19:46:55.390Z,43.7
2023-03-16T19:48:38.808Z,43.7
2023-03-16T19:50:22.177Z,43.7
2023-03-16T19:52:05.556Z,43.7
2023-03-16T19:53:48.979Z,43.8
2023-03-16T19:55:32.415Z,43.7
2023-03-16T19:57:15.778Z,43.8
2023-03-16T20:00:42.240Z,43.7
2023-03-16T20:02:25.610Z,43.7
2023-03-16T20:04:09.044Z,43.7
2023-03-16T20:05:52.478Z,43.7
2023-03-16T20:07:35.830Z,43.7
2023-03-16T20:09:19.226Z,43.7
2023-03-16T20:11:02.634Z,43.7
2023-03-16T20:14:29.291Z,43.6
2023-03-16T20:16:12.509Z,43.7
2023-03-16T20:17:55.883Z,43.7
2023-03-16T20:19:39.327Z,43.7
2023-03-16T20:21:22.683Z,43.7
2023-03-16T20:23:06.119Z,43.6
2023-03-16T20:24:49.526Z,43.6
2023-03-16T20:26:32.858Z,43.7
2023-03-16T20:29:59.338Z,43.6
2023-03-16T20:31:42.746Z,43.6
2023-03-16T20:33:26.187Z,43.7
2023-03-16T20:35:09.544Z,43.6
2023-03-16T20:36:52.964Z,43.5
2023-03-16T20:38:36.341Z,43.6
2023-03-16T20:40:19.727Z,43.6
2023-03-16T20:43:46.190Z,43.6
2023-03-16T20:45:29.660Z,43.6
2023-03-16T20:47:12.975Z,43.7
2023-03-16T20:48:56.394Z,43.7
2023-03-16T20:50:39.782Z,43.6
2023-03-16T20:52:23.181Z,43.7
2023-03-16T20:54:06.592Z,43.8
2023-03-16T20:59:15.803Z,43.8
2023-03-16T21:00:59.237Z,43.8
2023-03-16T21:02:42.600Z,43.8
2023-03-16T21:04:26.085Z,43.9
2023-03-16T21:06:09.407Z,43.9
2023-03-16T21:07:52.828Z,43.9
2023-03-16T21:09:36.180Z,43.8
2023-03-16T21:13:02.674Z,44
2023-03-16T21:14:46.053Z,44
2023-03-16T21:16:29.467Z,43.9
2023-03-16T21:18:12.918Z,43.9
2023-03-16T21:19:56.250Z,43.9
2023-03-16T21:21:39.657Z,43.9
2023-03-16T21:23:23.034Z,43.9
2023-03-16T21:25:06.479Z,44
2023-03-16T21:28:32.949Z,44.2
2023-03-16T21:30:16.297Z,44.2
2023-03-16T21:31:59.765Z,44.2
2023-03-16T21:33:43.189Z,44.2
2023-03-16T21:35:26.534Z,44.2
2023-03-16T21:37:09.895Z,44.1
2023-03-16T21:38:53.306Z,44.1
2023-03-16T21:42:19.758Z,44.1
2023-03-16T21:44:03.144Z,44.1
2023-03-16T21:45:46.691Z,44.1
2023-03-16T21:47:30.001Z,44.1
2023-03-16T21:49:13.360Z,44.2
2023-03-16T21:50:56.725Z,44.2
2023-03-16T21:52:40.179Z,44.3
2023-03-16T21:56:06.618Z,44.2
2023-03-16T21:57:49.989Z,44.2
2023-03-16T21:59:33.405Z,44.3
2023-03-16T22:01:16.960Z,44.5
2023-03-16T22:03:00.192Z,44.4
2023-03-16T22:04:43.593Z,44.4
2023-03-16T22:06:26.994Z,44.1
2023-03-16T22:08:10.419Z,44.1
2023-03-16T22:09:54.092Z,44
2023-03-16T22:11:37.543Z,43.7
2023-03-16T22:13:20.924Z,43.5
2023-03-16T22:15:04.276Z,43.5
2023-03-16T22:16:47.691Z,43.6
2023-03-16T22:18:31.054Z,43.6
2023-03-16T22:20:14.454Z,43.6
2023-03-16T22:23:40.915Z,44
2023-03-16T22:25:24.362Z,44.1
2023-03-16T22:27:07.734Z,44.2
2023-03-16T22:28:51.140Z,44
2023-03-16T22:30:34.546Z,44
2023-03-16T22:32:17.946Z,44.1
2023-03-16T22:34:01.304Z,44.1
2023-03-16T22:35:44.694Z,44.1
2023-03-16T22:37:28.421Z,44
2023-03-16T22:39:11.822Z,44
2023-03-16T22:40:55.202Z,43.9
2023-03-16T22:42:38.606Z,44
2023-03-16T22:44:21.987Z,43.9
2023-03-16T22:46:05.469Z,43.8
2023-03-16T22:47:48.816Z,43.8
2023-03-16T22:52:58.029Z,43.7
2023-03-16T22:54:41.423Z,43.8
2023-03-16T22:56:24.839Z,43.7
2023-03-16T22:58:08.206Z,43.7
2023-03-16T22:59:51.624Z,43.7
2023-03-16T23:01:34.996Z,43.7
2023-03-16T23:03:18.410Z,43.7
2023-03-16T23:08:27.665Z,43.7
2023-03-16T23:10:11.037Z,43.6
2023-03-16T23:11:54.449Z,43.6
2023-03-16T23:13:37.965Z,43.7
2023-03-16T23:15:21.296Z,43.7
2023-03-16T23:17:04.752Z,43.6
2023-03-16T23:18:48.041Z,43.6
2023-03-16T23:23:57.304Z,43.7
2023-03-16T23:25:40.728Z,43.7
2023-03-16T23:27:24.047Z,43.7
2023-03-16T23:29:07.456Z,43.6
2023-03-16T23:30:50.875Z,43.6
2023-03-16T23:32:34.244Z,43.7
2023-03-16T23:34:17.662Z,43.6
2023-03-16T23:37:44.150Z,43.6
2023-03-16T23:39:27.488Z,43.7
2023-03-16T23:41:10.905Z,43.8
2023-03-16T23:42:54.294Z,43.8
2023-03-16T23:44:37.696Z,43.6
2023-03-16T23:46:21.091Z,43.5
2023-03-16T23:48:04.547Z,43.4
2023-03-16T23:49:47.880Z,43.3
2023-03-16T23:53:14.345Z,43.1
2023-03-16T23:54:57.749Z,42.9
2023-03-16T23:56:41.149Z,42.6
2023-03-16T23:58:24.539Z,42.3
